Repülésmeteorológia

METAR


Utolsó módosítás időpontja: 2020-05-31 19:20:00
781
SAHU41 HASM 311930
METAR LHSM 311915Z AUTO 33013KT 290V360 9999 BKN030 BKN067 11/09 Q1016

TAF


Utolsó módosítás időpontja: 2020-05-31 17:05:00
774
FCHU99 LHSM 311700
TAF LHSM 311700Z NIL